Time;durP1;ratioP1;P1;durP2;ratioP2;P2;SDS_P1;SDS_P2;PMS_P1;PMS_P2;Temp;Humidity;BMP_temperature;BMP_pressure;BME280_temperature;BME280_humidity;BME280_pressure;Samples;Min_cycle;Max_cycle;Signal;HPM_P1;HPM_P2
2023/03/14 00:00:38;;;;;;;2.10;0.80;;;10.30;92.90;;;;;;5047741;28;20184;-74
2023/03/14 00:03:03;;;;;;;2.57;0.87;;;10.40;92.90;;;;;;5034332;28;20188;-74
2023/03/14 00:05:29;;;;;;;1.53;0.80;;;10.40;92.90;;;;;;5052673;28;20476;-73
2023/03/14 00:07:55;;;;;;;2.37;0.90;;;10.40;93.00;;;;;;5052028;28;20188;-74
2023/03/14 00:10:21;;;;;;;0.70;0.60;;;10.30;93.10;;;;;;5047555;28;20216;-73
2023/03/14 00:12:46;;;;;;;2.33;0.73;;;10.30;93.10;;;;;;5054604;28;20216;-75
2023/03/14 00:15:12;;;;;;;1.77;0.80;;;10.30;93.20;;;;;;5055516;28;21164;-74
2023/03/14 00:17:38;;;;;;;1.20;0.70;;;10.30;93.30;;;;;;5051520;28;20188;-73
2023/03/14 00:20:08;;;;;;;1.40;0.80;;;10.30;93.30;;;;;;5049131;28;20906;-74
2023/03/14 00:22:38;;;;;;;1.67;1.03;;;10.30;93.30;;;;;;5058715;28;20180;-74
2023/03/14 00:25:04;;;;;;;1.87;0.90;;;10.30;93.10;;;;;;5054669;28;20423;-74
2023/03/14 00:27:30;;;;;;;1.43;0.87;;;10.40;93.00;;;;;;5048723;28;20444;-73
2023/03/14 00:29:56;;;;;;;2.00;0.90;;;10.40;92.60;;;;;;5048821;28;20533;-73
2023/03/14 00:32:22;;;;;;;1.00;0.83;;;10.40;92.30;;;;;;5036433;28;20423;-73
2023/03/14 00:34:47;;;;;;;1.40;1.07;;;10.50;92.10;;;;;;5053272;28;20188;-74
2023/03/14 00:37:14;;;;;;;2.63;1.13;;;10.50;92.00;;;;;;5051906;28;20208;-74
2023/03/14 00:39:39;;;;;;;1.30;0.80;;;10.50;91.90;;;;;;5050010;28;20580;-72
2023/03/14 00:42:05;;;;;;;1.20;0.90;;;10.50;91.80;;;;;;5036036;28;20473;-75
2023/03/14 00:44:31;;;;;;;2.20;0.80;;;10.50;91.80;;;;;;5052410;28;20264;-73
2023/03/14 00:46:57;;;;;;;1.50;1.00;;;10.60;91.70;;;;;;5051012;28;20184;-73
2023/03/14 00:49:23;;;;;;;2.70;0.90;;;10.60;91.50;;;;;;5042671;28;21064;-74
2023/03/14 00:51:48;;;;;;;1.27;0.90;;;10.60;91.40;;;;;;5050624;28;20275;-73
2023/03/14 00:54:14;;;;;;;1.57;0.90;;;10.60;91.40;;;;;;5051450;28;20207;-73
2023/03/14 00:56:40;;;;;;;1.33;0.73;;;10.60;91.10;;;;;;5051088;28;20188;-74
2023/03/14 00:59:05;;;;;;;2.43;1.10;;;10.60;91.00;;;;;;5045504;28;20212;-76
2023/03/14 01:01:31;;;;;;;1.87;0.80;;;10.60;91.00;;;;;;5049883;28;20188;-74
2023/03/14 01:03:56;;;;;;;1.30;1.10;;;10.60;91.20;;;;;;5048223;28;20191;-74
2023/03/14 01:06:27;;;;;;;2.30;0.77;;;10.60;91.20;;;;;;5048438;28;20677;-74
2023/03/14 01:08:54;;;;;;;1.07;0.80;;;10.60;91.20;;;;;;5056265;28;20761;-75
2023/03/14 01:11:25;;;;;;;0.83;0.70;;;10.60;91.20;;;;;;5048902;28;20508;-74
2023/03/14 01:13:51;;;;;;;1.70;0.73;;;10.70;91.00;;;;;;5060975;28;20449;-74
2023/03/14 01:16:19;;;;;;;1.03;0.80;;;10.70;91.00;;;;;;5058266;28;20498;-73
2023/03/14 01:18:45;;;;;;;1.20;0.73;;;10.70;91.00;;;;;;5045228;28;21392;-75
2023/03/14 01:21:14;;;;;;;0.80;0.60;;;10.60;91.20;;;;;;5049906;28;20505;-73
2023/03/14 01:23:41;;;;;;;1.37;1.00;;;10.70;91.20;;;;;;5052693;28;20837;-73
2023/03/14 01:26:12;;;;;;;0.90;0.80;;;10.70;91.20;;;;;;5052477;28;20450;-73
2023/03/14 01:28:38;;;;;;;2.20;1.00;;;10.70;91.20;;;;;;5045999;28;20843;-73
2023/03/14 01:31:06;;;;;;;3.87;0.90;;;10.60;91.10;;;;;;5049121;28;20469;-75
2023/03/14 01:33:31;;;;;;;1.30;0.80;;;10.70;91.20;;;;;;5051608;28;20917;-73
2023/03/14 01:35:57;;;;;;;1.23;0.80;;;10.70;91.20;;;;;;5052718;28;20419;-73
2023/03/14 01:38:23;;;;;;;0.90;0.70;;;10.70;90.90;;;;;;5048198;28;20243;-74
2023/03/14 01:40:48;;;;;;;1.00;0.70;;;10.80;90.70;;;;;;5050825;28;20204;-73
2023/03/14 01:43:17;;;;;;;1.57;0.90;;;10.70;90.50;;;;;;5057043;28;20196;-73
2023/03/14 01:46:04;;;;;;;1.13;0.90;;;10.70;90.50;;;;;;5050332;28;20195;-74
2023/03/14 01:48:43;;;;;;;0.80;0.50;;;10.70;90.40;;;;;;5046802;28;20415;-73
2023/03/14 01:51:13;;;;;;;1.43;0.80;;;10.70;90.30;;;;;;5046399;28;20567;-72
2023/03/14 01:53:39;;;;;;;2.10;0.80;;;10.70;90.00;;;;;;5049087;28;20434;-74
2023/03/14 01:56:06;;;;;;;1.20;0.70;;;10.70;89.60;;;;;;5052971;28;20437;-73
2023/03/14 01:58:34;;;;;;;1.03;0.70;;;10.70;88.70;;;;;;5041999;28;20447;-74
2023/03/14 02:01:02;;;;;;;2.67;0.90;;;10.80;88.70;;;;;;5049730;28;20504;-73
2023/03/14 02:03:30;;;;;;;1.47;0.70;;;10.70;88.40;;;;;;5048497;28;20419;-74
2023/03/14 02:06:00;;;;;;;1.53;0.90;;;10.70;88.00;;;;;;5052894;28;20455;-72
2023/03/14 02:08:27;;;;;;;1.83;0.80;;;10.70;87.70;;;;;;5054091;28;20435;-74
2023/03/14 02:10:53;;;;;;;1.13;0.77;;;10.80;87.80;;;;;;5053133;28;20546;-74
2023/03/14 02:13:21;;;;;;;0.90;0.70;;;10.80;87.70;;;;;;5053593;28;20481;-73
2023/03/14 02:15:47;;;;;;;1.00;0.83;;;10.80;87.70;;;;;;5051752;28;20426;-73
2023/03/14 02:18:14;;;;;;;3.13;0.90;;;10.80;87.80;;;;;;5049127;28;20423;-73
2023/03/14 02:20:58;;;;;;;2.03;0.70;;;10.70;88.30;;;;;;5046453;28;20503;-73
2023/03/14 02:23:32;;;;;;;1.13;0.60;;;10.60;88.70;;;;;;5048137;28;20427;-74
2023/03/14 02:26:08;;;;;;;5.13;0.90;;;10.60;89.00;;;;;;5048814;28;20431;-73
2023/03/14 02:28:34;;;;;;;2.87;0.60;;;10.60;89.20;;;;;;5043418;28;20446;-74
2023/03/14 02:31:00;;;;;;;1.20;0.67;;;10.60;89.60;;;;;;5048346;28;20468;-73
2023/03/14 02:33:26;;;;;;;1.10;0.73;;;10.60;89.20;;;;;;5048157;28;20667;-72
2023/03/14 02:35:56;;;;;;;2.30;1.00;;;10.60;89.30;;;;;;5050519;28;20263;-76
2023/03/14 02:38:33;;;;;;;0.87;0.60;;;10.50;89.00;;;;;;5042639;28;20922;-73
2023/03/14 02:40:59;;;;;;;1.43;0.60;;;10.50;89.30;;;;;;5042029;28;20477;-73
2023/03/14 02:43:24;;;;;;;0.93;0.60;;;10.50;89.30;;;;;;5050115;28;20826;-72
2023/03/14 02:45:51;;;;;;;1.27;0.60;;;10.50;89.30;;;;;;5050547;28;20195;-75
2023/03/14 02:48:29;;;;;;;1.37;0.93;;;10.50;89.20;;;;;;5042916;28;20203;-74
2023/03/14 02:50:58;;;;;;;1.50;0.80;;;10.50;89.00;;;;;;5043221;28;20474;-74
2023/03/14 02:53:27;;;;;;;2.20;0.83;;;10.50;89.00;;;;;;5026172;28;20443;-73
2023/03/14 02:55:52;;;;;;;3.80;0.70;;;10.50;89.00;;;;;;5049974;28;20415;-74
2023/03/14 02:58:19;;;;;;;0.93;0.70;;;10.40;89.00;;;;;;5048606;28;20425;-74
2023/03/14 03:00:44;;;;;;;1.37;0.73;;;10.40;88.90;;;;;;5044889;28;20572;-73
2023/03/14 03:03:10;;;;;;;1.20;0.70;;;10.40;88.70;;;;;;5049904;28;20431;-73
2023/03/14 03:05:36;;;;;;;0.97;0.60;;;10.40;88.70;;;;;;5048299;28;20423;-73
2023/03/14 03:08:02;;;;;;;1.30;0.80;;;10.40;88.10;;;;;;5049061;28;21026;-73
2023/03/14 03:10:29;;;;;;;1.73;0.60;;;10.50;87.80;;;;;;5044434;28;20216;-74
2023/03/14 03:12:54;;;;;;;0.90;0.70;;;10.50;87.40;;;;;;5045707;28;20443;-72
2023/03/14 03:15:20;;;;;;;1.30;1.00;;;10.50;87.00;;;;;;5046343;28;20518;-75
2023/03/14 03:17:45;;;;;;;1.30;0.70;;;10.50;87.00;;;;;;5029062;28;20265;-73
2023/03/14 03:20:12;;;;;;;1.50;0.90;;;10.50;86.80;;;;;;5047428;28;20275;-73
2023/03/14 03:22:38;;;;;;;1.10;0.73;;;10.50;86.60;;;;;;5053457;28;20184;-74
2023/03/14 03:25:05;;;;;;;2.33;0.87;;;10.50;86.30;;;;;;5051821;28;20446;-72
2023/03/14 03:27:32;;;;;;;2.90;1.00;;;10.50;86.30;;;;;;5049684;28;20423;-74
2023/03/14 03:29:58;;;;;;;1.57;0.97;;;10.50;85.50;;;;;;5044470;28;20604;-71
2023/03/14 03:32:24;;;;;;;3.17;0.93;;;10.50;85.70;;;;;;5049208;28;20423;-72
2023/03/14 03:34:50;;;;;;;1.53;0.93;;;10.50;85.00;;;;;;5046607;28;20544;-72
2023/03/14 03:37:15;;;;;;;1.07;0.70;;;10.50;84.90;;;;;;5042041;28;20438;-72
2023/03/14 03:39:41;;;;;;;1.93;0.97;;;10.50;85.00;;;;;;5038409;28;20712;-73
2023/03/14 03:42:06;;;;;;;2.30;1.00;;;10.50;84.30;;;;;;5046606;28;20187;-72
2023/03/14 03:44:32;;;;;;;4.50;1.03;;;10.50;83.30;;;;;;5048453;28;20718;-73
2023/03/14 03:46:58;;;;;;;1.37;1.00;;;10.50;83.00;;;;;;5047779;28;20185;-74
2023/03/14 03:49:23;;;;;;;1.97;1.00;;;10.50;82.70;;;;;;5042386;28;20206;-73
2023/03/14 03:51:49;;;;;;;4.50;1.53;;;10.50;82.20;;;;;;5054883;28;20216;-73
2023/03/14 03:54:14;;;;;;;6.97;1.00;;;10.50;81.90;;;;;;5038570;28;20180;-72
2023/03/14 03:56:40;;;;;;;1.80;0.97;;;10.40;82.10;;;;;;5064749;28;20180;-73
2023/03/14 03:59:06;;;;;;;4.03;1.10;;;10.40;81.50;;;;;;5036198;28;20247;-72
2023/03/14 04:01:31;;;;;;;2.80;0.87;;;10.40;81.70;;;;;;5062382;28;20180;-72
2023/03/14 04:03:57;;;;;;;2.33;1.00;;;10.40;81.20;;;;;;5065361;28;20208;-73
2023/03/14 04:06:22;;;;;;;4.73;1.17;;;10.40;80.90;;;;;;5053222;28;20246;-74
2023/03/14 04:08:48;;;;;;;2.63;1.00;;;10.40;80.30;;;;;;5045044;28;20957;-73
2023/03/14 04:11:13;;;;;;;3.20;1.10;;;10.40;80.30;;;;;;5048879;28;20244;-73
2023/03/14 04:13:39;;;;;;;3.93;1.03;;;10.40;79.90;;;;;;5051589;28;20180;-74
2023/03/14 04:16:14;;;;;;;3.10;1.03;;;10.40;79.90;;;;;;5047710;28;20431;-74
2023/03/14 04:18:39;;;;;;;3.03;1.43;;;10.40;80.00;;;;;;5045752;28;20212;-74
2023/03/14 04:21:05;;;;;;;10.30;1.30;;;10.40;79.70;;;;;;5052617;28;20427;-73
2023/03/14 04:23:30;;;;;;;1.80;1.10;;;10.40;80.00;;;;;;5047979;28;20230;-74
2023/03/14 04:25:56;;;;;;;3.67;0.97;;;10.40;79.90;;;;;;5030957;28;20868;-73
2023/03/14 04:28:22;;;;;;;3.20;1.03;;;10.30;79.90;;;;;;5042247;28;20246;-75
2023/03/14 04:30:47;;;;;;;3.70;1.40;;;10.40;79.90;;;;;;5031382;28;20216;-74
2023/03/14 04:33:16;;;;;;;2.87;1.63;;;10.30;79.50;;;;;;5052516;28;20188;-74
2023/03/14 04:35:43;;;;;;;3.70;1.10;;;10.30;79.70;;;;;;5048806;28;20203;-74
2023/03/14 04:38:08;;;;;;;5.63;1.07;;;10.30;79.70;;;;;;5051312;28;20513;-73
2023/03/14 04:40:40;;;;;;;2.23;1.23;;;10.20;79.70;;;;;;5048396;28;20565;-72
2023/03/14 04:43:06;;;;;;;2.23;0.90;;;10.30;79.50;;;;;;5052471;28;20271;-73
2023/03/14 04:45:31;;;;;;;2.70;0.90;;;10.30;79.50;;;;;;5052678;28;20489;-73
2023/03/14 04:47:57;;;;;;;4.50;1.00;;;10.30;79.70;;;;;;5051628;28;20816;-74
2023/03/14 04:50:23;;;;;;;2.17;1.23;;;10.20;79.70;;;;;;5049785;28;20224;-74
2023/03/14 04:52:48;;;;;;;7.73;1.40;;;10.20;80.00;;;;;;5050297;28;20716;-73
2023/03/14 04:55:14;;;;;;;1.70;1.00;;;10.20;80.00;;;;;;5052868;28;20542;-72
2023/03/14 04:57:40;;;;;;;4.03;0.90;;;10.20;80.00;;;;;;5046454;28;20185;-73
2023/03/14 05:00:06;;;;;;;3.80;1.23;;;10.10;80.00;;;;;;5045618;28;20550;-74
2023/03/14 05:02:32;;;;;;;3.70;1.60;;;10.10;80.20;;;;;;5051708;28;20194;-74
2023/03/14 05:04:58;;;;;;;3.40;1.13;;;10.10;80.30;;;;;;5049463;28;20517;-72
2023/03/14 05:07:23;;;;;;;3.27;1.07;;;10.10;80.30;;;;;;5047264;28;20510;-74
2023/03/14 05:09:49;;;;;;;4.73;1.10;;;10.10;80.20;;;;;;5042218;28;20216;-74
2023/03/14 05:12:14;;;;;;;4.53;1.70;;;10.10;80.30;;;;;;5046137;28;20205;-73
2023/03/14 05:14:40;;;;;;;6.23;1.17;;;10.00;80.30;;;;;;5053391;28;20184;-73
2023/03/14 05:17:06;;;;;;;2.20;1.20;;;10.00;80.30;;;;;;5043429;28;20511;-74
2023/03/14 05:19:31;;;;;;;2.00;1.20;;;10.00;80.20;;;;;;5045521;28;20269;-73
2023/03/14 05:21:57;;;;;;;2.77;1.10;;;10.00;80.20;;;;;;5049217;28;20189;-72
2023/03/14 05:24:23;;;;;;;7.37;1.30;;;10.00;80.20;;;;;;5026249;28;20427;-73
2023/03/14 05:26:48;;;;;;;3.63;1.10;;;10.00;80.20;;;;;;5050302;28;20197;-74
2023/03/14 05:29:14;;;;;;;3.07;1.67;;;10.00;80.30;;;;;;5045018;28;20237;-72
2023/03/14 05:31:39;;;;;;;2.57;1.00;;;10.00;80.20;;;;;;5032966;28;20330;-74
2023/03/14 05:34:05;;;;;;;6.90;2.03;;;10.00;80.00;;;;;;5050183;28;20207;-73
2023/03/14 05:36:30;;;;;;;3.13;1.03;;;10.00;80.00;;;;;;5047472;28;20540;-73
2023/03/14 05:38:56;;;;;;;2.40;1.10;;;10.00;79.90;;;;;;5043102;28;20212;-74
2023/03/14 05:41:22;;;;;;;3.30;1.17;;;10.00;80.20;;;;;;5030745;28;20183;-74
2023/03/14 05:43:47;;;;;;;3.03;1.17;;;10.00;80.00;;;;;;5051385;28;20686;-72
2023/03/14 05:46:13;;;;;;;2.40;1.00;;;10.00;79.70;;;;;;5046362;28;20212;-74
2023/03/14 05:48:38;;;;;;;2.57;1.00;;;10.00;79.90;;;;;;5043707;28;20249;-73
2023/03/14 05:51:04;;;;;;;2.13;1.30;;;10.00;79.60;;;;;;5043895;28;20242;-73
2023/03/14 05:53:30;;;;;;;3.57;1.37;;;10.00;79.60;;;;;;5028705;28;20267;-71
2023/03/14 05:55:56;;;;;;;3.00;1.17;;;10.00;79.50;;;;;;5048163;28;20188;-71
2023/03/14 05:58:22;;;;;;;3.40;1.10;;;10.10;79.50;;;;;;5043217;28;20185;-72
2023/03/14 06:00:48;;;;;;;2.07;0.90;;;10.10;79.50;;;;;;5026912;28;20455;-73
2023/03/14 06:03:14;;;;;;;2.53;0.90;;;10.10;79.00;;;;;;5043141;28;20422;-72
2023/03/14 06:05:40;;;;;;;1.70;1.17;;;10.20;78.90;;;;;;5045777;28;20433;-71
2023/03/14 06:08:05;;;;;;;4.70;1.10;;;10.10;79.20;;;;;;5027651;28;20184;-71
2023/03/14 06:10:31;;;;;;;2.23;0.97;;;10.20;78.90;;;;;;5046634;28;21016;-71
2023/03/14 06:12:56;;;;;;;2.47;1.00;;;10.10;79.20;;;;;;5051826;28;20255;-73
2023/03/14 06:15:22;;;;;;;2.00;1.20;;;10.10;79.00;;;;;;5034600;28;20177;-72
2023/03/14 06:17:48;;;;;;;4.30;1.30;;;10.10;79.20;;;;;;5049188;28;20238;-73
2023/03/14 06:20:13;;;;;;;3.10;1.20;;;10.10;78.70;;;;;;5047744;28;20779;-71
2023/03/14 06:22:40;;;;;;;3.77;1.10;;;10.10;78.60;;;;;;5049147;28;20184;-71
2023/03/14 06:25:06;;;;;;;4.03;1.13;;;10.10;78.30;;;;;;5049314;28;20223;-74
2023/03/14 06:27:32;;;;;;;4.40;1.30;;;10.20;78.10;;;;;;5047785;28;20510;-72
2023/03/14 06:29:58;;;;;;;5.40;1.20;;;10.20;78.00;;;;;;5043225;28;20565;-72
2023/03/14 06:32:24;;;;;;;7.77;1.37;;;10.20;78.00;;;;;;5050638;28;20652;-73
2023/03/14 06:34:50;;;;;;;3.63;1.20;;;10.20;77.80;;;;;;5047810;28;20605;-73
2023/03/14 06:37:15;;;;;;;4.80;1.20;;;10.30;78.00;;;;;;5046090;28;20422;-74
2023/03/14 06:39:41;;;;;;;4.70;1.30;;;10.30;78.00;;;;;;5025964;28;20273;-72
2023/03/14 06:42:07;;;;;;;2.80;1.40;;;10.30;77.80;;;;;;5053519;28;20260;-72
2023/03/14 06:44:32;;;;;;;16.47;1.60;;;10.40;77.70;;;;;;5056687;28;20560;-73
2023/03/14 06:46:58;;;;;;;5.13;1.53;;;10.40;77.60;;;;;;5057562;28;20184;-74
2023/03/14 06:49:23;;;;;;;1.53;0.90;;;10.40;77.60;;;;;;5033803;28;20243;-72
2023/03/14 06:51:50;;;;;;;2.10;1.00;;;10.40;77.40;;;;;;5034689;28;20255;-73
2023/03/14 06:54:16;;;;;;;14.57;1.03;;;10.40;77.40;;;;;;5046377;28;20430;-73
2023/03/14 06:56:41;;;;;;;2.03;1.10;;;10.40;76.50;;;;;;5046590;28;20759;-71
2023/03/14 06:59:07;;;;;;;2.10;1.13;;;10.50;76.70;;;;;;5038112;28;20268;-73
2023/03/14 07:01:34;;;;;;;2.80;0.90;;;10.50;76.70;;;;;;5046972;28;20275;-73
2023/03/14 07:04:00;;;;;;;3.03;0.93;;;10.60;76.40;;;;;;5050592;28;20215;-72
2023/03/14 07:06:29;;;;;;;1.83;0.93;;;10.70;76.20;;;;;;5049566;28;20861;-74
2023/03/14 07:08:55;;;;;;;2.40;1.00;;;10.80;75.90;;;;;;5046469;28;20212;-73
2023/03/14 07:11:21;;;;;;;3.37;1.00;;;10.90;75.20;;;;;;5048588;28;20470;-73
2023/03/14 07:13:47;;;;;;;6.33;0.80;;;10.90;74.90;;;;;;5051557;28;20438;-73
2023/03/14 07:16:12;;;;;;;1.50;0.80;;;11.00;74.80;;;;;;5047792;28;20423;-73
2023/03/14 07:18:38;;;;;;;2.00;0.90;;;11.00;74.80;;;;;;5044579;28;20214;-73
2023/03/14 07:21:05;;;;;;;1.57;0.93;;;11.00;74.60;;;;;;5055420;28;20176;-72
2023/03/14 07:23:31;;;;;;;1.77;0.80;;;11.00;74.30;;;;;;5051214;28;20189;-72
2023/03/14 07:25:57;;;;;;;2.23;0.90;;;11.10;74.50;;;;;;5053839;28;20425;-76
2023/03/14 07:28:23;;;;;;;2.20;0.70;;;11.10;73.90;;;;;;5048632;28;20287;-74
2023/03/14 07:30:48;;;;;;;2.47;0.80;;;11.10;74.00;;;;;;5049388;28;20211;-72
2023/03/14 07:33:14;;;;;;;1.17;0.60;;;11.20;74.00;;;;;;5034342;28;20674;-74
2023/03/14 07:35:40;;;;;;;3.53;1.07;;;11.20;73.70;;;;;;5053668;28;20423;-73
2023/03/14 07:38:05;;;;;;;3.10;1.10;;;11.20;73.90;;;;;;5050823;28;20715;-75
2023/03/14 07:40:31;;;;;;;1.50;0.80;;;11.30;74.20;;;;;;5052651;28;20242;-74
2023/03/14 07:42:57;;;;;;;3.63;0.90;;;11.40;73.50;;;;;;5055249;28;20277;-75
2023/03/14 07:45:23;;;;;;;4.40;1.10;;;11.40;73.60;;;;;;5055321;28;20180;-74
2023/03/14 07:47:48;;;;;;;2.00;0.83;;;11.40;73.30;;;;;;5051257;28;20944;-74
2023/03/14 07:50:14;;;;;;;2.20;0.80;;;11.50;73.20;;;;;;5042896;28;20225;-72
2023/03/14 07:52:39;;;;;;;3.17;0.90;;;11.50;72.60;;;;;;5054105;28;20263;-74
2023/03/14 07:55:06;;;;;;;1.37;0.70;;;11.60;72.70;;;;;;5053255;28;20212;-74
2023/03/14 07:57:31;;;;;;;1.70;1.20;;;11.60;72.40;;;;;;5047174;28;20183;-74
2023/03/14 07:59:57;;;;;;;1.40;0.77;;;11.70;72.40;;;;;;5046479;28;20455;-74
2023/03/14 08:02:23;;;;;;;5.10;0.83;;;11.70;72.40;;;;;;5052103;28;20199;-74
2023/03/14 08:04:50;;;;;;;1.63;0.60;;;11.70;72.00;;;;;;5051267;28;20226;-72
2023/03/14 08:07:16;;;;;;;1.10;0.73;;;11.70;72.10;;;;;;5049889;28;20443;-73
2023/03/14 08:09:41;;;;;;;1.60;0.70;;;11.70;72.00;;;;;;5031259;28;20489;-74
2023/03/14 08:12:07;;;;;;;1.87;1.20;;;11.80;72.00;;;;;;5053563;28;20438;-72
2023/03/14 08:14:33;;;;;;;1.67;0.70;;;11.80;72.00;;;;;;5050305;28;20216;-73
2023/03/14 08:16:58;;;;;;;5.70;0.90;;;11.90;71.70;;;;;;5047206;28;20230;-73
2023/03/14 08:19:24;;;;;;;3.23;0.80;;;12.10;71.40;;;;;;5049527;28;20253;-72
2023/03/14 08:21:50;;;;;;;2.03;1.00;;;12.10;70.70;;;;;;5033343;28;20212;-74
2023/03/14 08:24:16;;;;;;;2.03;1.00;;;12.10;71.00;;;;;;5047282;28;20206;-73
2023/03/14 08:26:41;;;;;;;4.83;1.37;;;12.10;70.80;;;;;;5052401;28;20315;-73
2023/03/14 08:29:07;;;;;;;2.93;1.00;;;12.20;70.50;;;;;;5046918;28;20458;-74
2023/03/14 08:31:37;;;;;;;1.53;0.80;;;12.40;70.10;;;;;;5050252;28;20204;-74
2023/03/14 08:34:03;;;;;;;3.63;1.23;;;12.40;69.20;;;;;;5052795;28;20415;-73
2023/03/14 08:36:28;;;;;;;1.30;1.00;;;12.50;69.40;;;;;;5050441;28;20516;-72
2023/03/14 08:38:54;;;;;;;3.00;0.60;;;12.60;69.10;;;;;;5044255;28;20502;-73
2023/03/14 08:41:20;;;;;;;2.77;0.90;;;12.80;68.80;;;;;;5053005;28;20276;-71
2023/03/14 08:43:45;;;;;;;1.60;0.80;;;12.90;68.30;;;;;;5054548;28;20184;-72
2023/03/14 08:46:11;;;;;;;1.10;0.70;;;13.00;68.30;;;;;;5054171;28;20219;-72
2023/03/14 08:48:37;;;;;;;0.90;0.60;;;13.00;67.70;;;;;;5052849;28;20200;-74
2023/03/14 08:51:12;;;;;;;1.30;0.63;;;12.90;67.30;;;;;;5053672;28;20230;-74
2023/03/14 08:53:38;;;;;;;2.80;0.70;;;12.70;68.20;;;;;;5031783;28;20177;-71
2023/03/14 08:56:05;;;;;;;2.30;0.70;;;12.70;68.30;;;;;;5052829;28;20419;-74
2023/03/14 08:58:32;;;;;;;1.17;0.80;;;12.80;68.50;;;;;;5042108;28;20257;-72
2023/03/14 09:00:57;;;;;;;3.83;1.43;;;12.80;68.80;;;;;;5046422;28;20439;-73
2023/03/14 09:03:24;;;;;;;11.73;0.97;;;12.90;68.80;;;;;;5052342;28;20423;-74
2023/03/14 09:05:50;;;;;;;2.37;0.90;;;13.00;68.80;;;;;;5048404;28;20185;-73
2023/03/14 09:08:16;;;;;;;1.33;0.80;;;13.00;68.60;;;;;;5048225;28;21189;-74
2023/03/14 09:10:41;;;;;;;4.03;0.87;;;12.80;68.90;;;;;;5050928;28;20477;-74
2023/03/14 09:13:07;;;;;;;1.97;0.80;;;12.70;69.70;;;;;;5053467;28;20189;-72
2023/03/14 09:15:33;;;;;;;0.90;0.70;;;12.60;69.90;;;;;;5053297;28;20184;-72
2023/03/14 09:17:59;;;;;;;1.47;1.00;;;12.50;70.50;;;;;;5051977;28;20230;-73
2023/03/14 09:20:24;;;;;;;2.20;0.80;;;12.40;70.80;;;;;;5043856;28;20712;-72
2023/03/14 09:22:50;;;;;;;1.10;0.70;;;12.40;71.30;;;;;;5052937;28;20425;-73
2023/03/14 09:25:16;;;;;;;1.43;0.63;;;12.50;71.70;;;;;;5051857;28;20188;-73
2023/03/14 09:27:41;;;;;;;1.27;0.90;;;12.60;72.30;;;;;;5045598;28;20263;-73
2023/03/14 09:30:08;;;;;;;1.27;0.63;;;12.60;71.70;;;;;;5047012;28;20220;-73
2023/03/14 09:32:33;;;;;;;0.83;0.70;;;12.50;71.70;;;;;;5053668;28;20204;-73
2023/03/14 09:34:59;;;;;;;1.23;0.73;;;12.60;72.10;;;;;;5053855;28;20435;-72
2023/03/14 09:37:24;;;;;;;0.93;0.60;;;12.60;71.70;;;;;;5052019;28;20215;-72
2023/03/14 09:39:50;;;;;;;16.27;2.40;;;12.70;71.70;;;;;;5053885;28;20217;-74
2023/03/14 09:42:20;;;;;;;1.47;0.80;;;12.60;72.10;;;;;;5057177;28;20635;-73
2023/03/14 09:44:59;;;;;;;2.70;0.87;;;12.70;72.10;;;;;;5052709;28;20227;-73
2023/03/14 09:47:26;;;;;;;2.43;0.80;;;12.60;71.80;;;;;;5051503;28;20834;-73
2023/03/14 09:49:52;;;;;;;1.00;0.80;;;12.70;71.80;;;;;;5047398;28;20962;-73
2023/03/14 09:52:26;;;;;;;1.30;0.60;;;12.60;71.40;;;;;;5049627;28;20899;-73
2023/03/14 09:54:56;;;;;;;1.33;0.70;;;12.60;71.30;;;;;;5050936;28;20469;-72
2023/03/14 09:57:24;;;;;;;1.10;0.80;;;12.60;70.70;;;;;;5048460;28;20902;-72
2023/03/14 09:59:54;;;;;;;4.03;0.80;;;12.70;70.50;;;;;;5049005;28;20466;-74
2023/03/14 10:02:25;;;;;;;1.43;0.67;;;12.70;69.90;;;;;;5045856;28;20430;-74
2023/03/14 10:04:53;;;;;;;1.23;0.63;;;12.70;70.10;;;;;;5049302;28;20456;-73
2023/03/14 10:07:30;;;;;;;0.90;0.60;;;12.80;70.20;;;;;;5044963;28;20942;-72
2023/03/14 10:09:56;;;;;;;2.50;0.60;;;12.80;70.20;;;;;;5048072;28;20462;-73
2023/03/14 10:12:37;;;;;;;2.47;0.67;;;12.90;70.20;;;;;;5026220;28;20440;-73
2023/03/14 10:15:08;;;;;;;2.23;0.80;;;12.70;70.50;;;;;;5042930;28;20434;-73
2023/03/14 10:17:50;;;;;;;1.73;0.60;;;12.70;71.00;;;;;;5043967;28;20506;-72
2023/03/14 10:20:37;;;;;;;0.90;0.70;;;12.70;70.70;;;;;;5043659;28;21101;-72
2023/03/14 10:23:14;;;;;;;0.90;0.70;;;12.80;70.50;;;;;;5032754;28;20445;-75
2023/03/14 10:25:43;;;;;;;1.40;0.70;;;12.80;70.20;;;;;;5050148;28;20437;-74
2023/03/14 10:28:27;;;;;;;1.10;0.60;;;13.00;70.20;;;;;;5048729;28;20427;-72
2023/03/14 10:30:53;;;;;;;0.93;0.60;;;13.20;69.20;;;;;;5044266;28;20545;-73
2023/03/14 10:33:25;;;;;;;1.00;0.50;;;13.30;68.60;;;;;;5049942;28;20455;-73
2023/03/14 10:36:00;;;;;;;0.90;0.70;;;13.20;68.50;;;;;;5048426;28;20423;-72
2023/03/14 10:38:31;;;;;;;0.73;0.60;;;13.10;68.30;;;;;;5043869;28;20450;-73
2023/03/14 10:40:58;;;;;;;1.10;0.60;;;13.10;68.50;;;;;;5050227;28;20500;-73
2023/03/14 10:43:32;;;;;;;2.10;0.60;;;13.10;68.80;;;;;;5050590;28;20431;-72
2023/03/14 10:46:02;;;;;;;2.93;0.67;;;13.20;68.60;;;;;;5047433;28;20484;-72
2023/03/14 10:48:40;;;;;;;1.67;0.70;;;13.20;68.60;;;;;;5027055;28;20456;-73
2023/03/14 10:51:18;;;;;;;1.40;0.67;;;13.30;68.80;;;;;;5025483;28;20952;-73
2023/03/14 10:53:48;;;;;;;1.10;0.67;;;13.40;68.30;;;;;;5050966;28;20418;-73
2023/03/14 10:56:15;;;;;;;0.77;0.50;;;13.40;68.50;;;;;;5024047;28;20438;-73
2023/03/14 10:58:49;;;;;;;0.90;0.60;;;13.30;68.80;;;;;;5046356;28;21115;-74
2023/03/14 11:01:25;;;;;;;1.20;0.60;;;13.30;69.20;;;;;;5054082;28;20484;-75
2023/03/14 11:04:05;;;;;;;0.77;0.63;;;13.10;69.70;;;;;;5048757;28;20465;-74
2023/03/14 11:06:41;;;;;;;1.73;0.70;;;13.00;70.20;;;;;;5053612;28;20435;-74
2023/03/14 11:09:16;;;;;;;4.83;0.70;;;12.80;71.40;;;;;;5050493;28;20462;-73
2023/03/14 11:11:46;;;;;;;1.20;0.50;;;12.60;72.40;;;;;;5055541;28;21257;-73
2023/03/14 11:14:36;;;;;;;1.33;0.80;;;12.50;73.00;;;;;;5052398;28;21181;-73
2023/03/14 11:17:25;;;;;;;0.90;0.70;;;12.30;73.60;;;;;;5050434;28;20445;-73
2023/03/14 11:20:16;;;;;;;2.27;0.70;;;12.20;73.50;;;;;;5051443;28;20466;-74
2023/03/14 11:23:19;;;;;;;0.97;0.60;;;12.30;73.00;;;;;;5035574;28;20431;-73
2023/03/14 11:26:20;;;;;;;8.53;1.13;;;12.10;73.70;;;;;;5054380;28;20510;-73
2023/03/14 11:28:56;;;;;;;0.90;0.60;;;11.80;75.40;;;;;;5010856;28;20507;-75
2023/03/14 11:31:35;;;;;;;2.57;0.70;;;11.60;75.90;;;;;;5045969;28;20842;-74
2023/03/14 11:34:15;;;;;;;1.13;0.70;;;11.50;77.00;;;;;;5053747;28;20427;-73
2023/03/14 11:37:04;;;;;;;1.50;0.70;;;11.40;77.80;;;;;;5053592;28;20426;-72
2023/03/14 11:39:39;;;;;;;0.80;0.50;;;11.30;78.30;;;;;;5045455;28;20482;-74
2023/03/14 11:42:18;;;;;;;0.90;0.60;;;11.30;79.00;;;;;;5045965;28;20434;-72
2023/03/14 11:44:47;;;;;;;0.90;0.50;;;11.30;78.30;;;;;;5035179;28;20438;-73
2023/03/14 11:47:41;;;;;;;1.17;0.70;;;11.50;76.20;;;;;;5052162;28;20434;-72
2023/03/14 11:50:12;;;;;;;1.47;0.80;;;11.60;76.50;;;;;;5038042;28;20466;-74
2023/03/14 11:52:47;;;;;;;3.07;0.70;;;11.50;77.10;;;;;;5048267;28;20514;-74
2023/03/14 11:55:20;;;;;;;0.70;0.50;;;11.60;78.00;;;;;;5047212;28;20441;-72
2023/03/14 11:57:49;;;;;;;2.30;1.00;;;11.60;78.10;;;;;;5046096;28;20572;-73
2023/03/14 12:00:19;;;;;;;0.90;0.70;;;11.40;79.30;;;;;;5046101;28;20511;-74
2023/03/14 12:03:34;;;;;;;1.30;0.70;;;11.40;80.00;;;;;;5047330;28;20526;-74
2023/03/14 12:06:25;;;;;;;0.97;0.60;;;11.40;78.10;;;;;;5048563;28;20435;-72
2023/03/14 12:09:03;;;;;;;0.90;0.57;;;11.50;77.10;;;;;;5022053;28;20927;-72
2023/03/14 12:11:43;;;;;;;1.27;0.70;;;11.60;77.70;;;;;;5052211;28;20473;-72
2023/03/14 12:14:28;;;;;;;0.63;0.50;;;11.70;77.30;;;;;;5042566;28;20427;-73
2023/03/14 12:16:57;;;;;;;1.90;0.70;;;11.90;76.70;;;;;;5049590;28;20515;-73
2023/03/14 12:19:23;;;;;;;1.13;0.60;;;11.80;76.50;;;;;;5047447;28;20886;-73
2023/03/14 12:21:51;;;;;;;0.70;0.50;;;11.70;76.70;;;;;;5052146;28;20427;-72
2023/03/14 12:24:29;;;;;;;1.60;0.80;;;11.50;79.30;;;;;;5031246;28;20338;-72
2023/03/14 12:26:57;;;;;;;0.50;0.40;;;11.40;80.60;;;;;;5034689;28;20446;-73
2023/03/14 12:29:24;;;;;;;1.40;0.73;;;11.30;79.30;;;;;;5052439;28;20480;-74
2023/03/14 12:32:07;;;;;;;2.70;0.80;;;11.70;78.00;;;;;;5052655;28;20498;-73
2023/03/14 12:34:41;;;;;;;1.00;0.60;;;12.00;73.70;;;;;;5059276;28;20423;-74
2023/03/14 12:37:17;;;;;;;1.47;0.60;;;12.00;72.00;;;;;;5051799;28;20454;-74
2023/03/14 12:40:27;;;;;;;2.17;1.00;;;11.80;69.90;;;;;;5027578;28;20485;-73
2023/03/14 12:43:01;;;;;;;2.60;0.93;;;11.80;71.10;;;;;;5027587;28;20474;-73
2023/03/14 12:45:32;;;;;;;2.43;1.20;;;12.00;70.20;;;;;;5051327;28;20413;-74
2023/03/14 12:48:06;;;;;;;1.10;0.80;;;11.70;66.90;;;;;;5048478;28;20438;-73
2023/03/14 12:50:40;;;;;;;2.30;1.00;;;11.60;66.90;;;;;;5037961;28;20846;-74
2023/03/14 12:53:46;;;;;;;1.30;1.00;;;11.80;65.80;;;;;;5051381;28;20430;-72